Time;durP1;ratioP1;P1;durP2;ratioP2;P2;SDS_P1;SDS_P2;PMS_P1;PMS_P2;Temp;Humidity;BMP_temperature;BMP_pressure;BME280_temperature;BME280_humidity;BME280_pressure;Samples;Min_cycle;Max_cycle;Signal;HPM_P1;HPM_P2
2024/01/13 00:00:05;;;;;;;60.88;5.78;;;2.50;99.90;;;;;;5077775;28;20035;-63
2024/01/13 00:02:31;;;;;;;91.75;6.25;;;2.40;99.90;;;;;;5077836;28;20377;-62
2024/01/13 00:04:56;;;;;;;46.67;4.57;;;2.40;99.90;;;;;;5078645;28;20055;-64
2024/01/13 00:07:22;;;;;;;52.75;5.38;;;2.50;99.90;;;;;;5077629;28;20058;-64
2024/01/13 00:09:47;;;;;;;18.20;4.30;;;2.50;99.90;;;;;;5062196;28;20061;-62
2024/01/13 00:12:13;;;;;;;26.02;4.85;;;2.50;99.90;;;;;;5080972;28;20032;-62
2024/01/13 00:14:39;;;;;;;22.35;4.80;;;2.50;99.90;;;;;;5079364;28;20044;-63
2024/01/13 00:17:04;;;;;;;15.25;4.38;;;2.50;99.90;;;;;;5077706;28;20052;-63
2024/01/13 00:19:30;;;;;;;11.25;4.63;;;2.50;99.90;;;;;;5073720;28;20044;-63
2024/01/13 00:21:55;;;;;;;11.57;4.07;;;2.50;99.90;;;;;;5078070;28;20132;-62
2024/01/13 00:24:21;;;;;;;10.05;4.60;;;2.60;99.90;;;;;;5078700;28;20036;-61
2024/01/13 00:26:47;;;;;;;14.43;4.75;;;2.60;99.90;;;;;;5078763;28;20102;-63
2024/01/13 00:29:13;;;;;;;15.88;4.53;;;2.60;99.90;;;;;;5079715;28;20040;-62
2024/01/13 00:31:38;;;;;;;11.50;4.28;;;2.60;99.90;;;;;;5079486;28;20051;-62
2024/01/13 00:34:04;;;;;;;12.73;4.50;;;2.60;99.90;;;;;;5082194;28;20028;-62
2024/01/13 00:36:30;;;;;;;9.82;4.22;;;2.70;99.90;;;;;;5080644;28;20433;-62
2024/01/13 00:38:55;;;;;;;16.27;5.00;;;2.70;99.90;;;;;;5078118;28;20041;-63
2024/01/13 00:41:21;;;;;;;11.98;4.35;;;2.70;99.90;;;;;;5078977;28;20039;-63
2024/01/13 00:43:47;;;;;;;12.88;4.45;;;2.60;99.90;;;;;;5079068;28;20047;-63
2024/01/13 00:46:13;;;;;;;16.27;4.38;;;2.60;99.90;;;;;;5062794;28;20062;-63
2024/01/13 00:48:38;;;;;;;10.93;4.78;;;2.60;99.90;;;;;;5078460;28;20119;-62
2024/01/13 00:51:04;;;;;;;8.35;3.78;;;2.60;99.90;;;;;;5079973;28;20051;-64
2024/01/13 00:53:31;;;;;;;6.65;3.80;;;2.70;99.90;;;;;;5080104;28;20036;-64
2024/01/13 00:55:57;;;;;;;6.63;3.90;;;2.70;99.90;;;;;;5079381;28;20048;-62
2024/01/13 00:58:22;;;;;;;5.90;3.78;;;2.70;99.90;;;;;;5078292;28;20040;-62
2024/01/13 01:00:48;;;;;;;7.95;3.95;;;2.80;99.90;;;;;;5076478;28;20086;-61
2024/01/13 01:03:13;;;;;;;6.60;3.65;;;2.70;99.90;;;;;;5076910;28;20046;-62
2024/01/13 01:05:39;;;;;;;5.65;3.75;;;2.70;99.90;;;;;;5082104;28;20044;-61
2024/01/13 01:08:05;;;;;;;5.82;4.15;;;2.80;99.90;;;;;;5078586;28;20052;-63
2024/01/13 01:10:31;;;;;;;6.43;4.50;;;2.70;99.90;;;;;;5077195;28;20043;-62
2024/01/13 01:12:56;;;;;;;8.55;4.60;;;2.70;99.90;;;;;;5077461;28;20055;-62
2024/01/13 01:15:22;;;;;;;7.30;4.53;;;2.70;99.90;;;;;;5077494;28;20040;-61
2024/01/13 01:17:47;;;;;;;7.30;5.03;;;2.80;99.90;;;;;;5077382;28;20041;-63
2024/01/13 01:20:13;;;;;;;9.90;5.07;;;2.70;99.90;;;;;;5076409;28;20048;-63
2024/01/13 01:22:39;;;;;;;13.00;5.85;;;2.70;99.90;;;;;;5079848;28;20126;-63
2024/01/13 01:25:05;;;;;;;14.85;5.72;;;2.70;99.90;;;;;;5080748;28;20371;-63
2024/01/13 01:27:31;;;;;;;13.70;5.72;;;2.70;99.90;;;;;;5081686;28;20032;-64
2024/01/13 01:29:56;;;;;;;24.30;6.75;;;2.80;99.90;;;;;;5078032;28;20043;-64
2024/01/13 01:32:22;;;;;;;19.83;7.10;;;2.80;99.90;;;;;;5081319;28;20044;-63
2024/01/13 01:34:48;;;;;;;14.57;6.72;;;2.70;99.90;;;;;;5082086;28;20280;-63
2024/01/13 01:37:13;;;;;;;18.63;6.47;;;2.70;99.90;;;;;;5080006;28;20044;-63
2024/01/13 01:39:39;;;;;;;12.60;6.38;;;2.70;99.90;;;;;;5080377;28;20465;-63
2024/01/13 01:42:05;;;;;;;14.77;7.35;;;2.70;99.90;;;;;;5080306;28;20376;-63
2024/01/13 01:44:30;;;;;;;16.42;7.03;;;2.70;99.90;;;;;;5081125;28;20115;-62
2024/01/13 01:46:59;;;;;;;12.82;6.85;;;2.80;99.90;;;;;;5083152;28;20036;-62
2024/01/13 01:49:25;;;;;;;15.90;7.97;;;2.80;99.90;;;;;;5081012;28;20066;-63
2024/01/13 01:51:51;;;;;;;9.60;6.40;;;2.80;99.90;;;;;;5081543;28;20528;-63
2024/01/13 01:54:17;;;;;;;13.63;7.13;;;2.80;99.90;;;;;;5082600;28;20044;-63
2024/01/13 01:56:43;;;;;;;16.58;7.57;;;2.70;99.90;;;;;;5081260;28;20078;-63
2024/01/13 01:59:09;;;;;;;9.95;6.60;;;2.70;99.90;;;;;;5083746;28;20068;-63
2024/01/13 02:01:36;;;;;;;10.45;6.82;;;2.70;99.90;;;;;;5080483;28;20047;-63
2024/01/13 02:04:03;;;;;;;10.55;6.88;;;2.70;99.90;;;;;;5081694;28;20043;-64
2024/01/13 02:06:30;;;;;;;8.35;5.60;;;2.70;99.90;;;;;;5076841;28;20601;-63
2024/01/13 02:08:55;;;;;;;11.45;5.93;;;2.70;99.90;;;;;;5080019;28;20060;-63
2024/01/13 02:11:21;;;;;;;10.48;6.13;;;2.70;99.90;;;;;;5079062;28;20039;-63
2024/01/13 02:13:48;;;;;;;10.23;6.15;;;2.70;99.90;;;;;;5079078;28;20081;-63
2024/01/13 02:16:15;;;;;;;12.55;6.70;;;2.70;99.90;;;;;;5078340;28;20533;-62
2024/01/13 02:18:41;;;;;;;10.57;6.18;;;2.70;99.90;;;;;;5081494;28;20040;-62
2024/01/13 02:21:07;;;;;;;12.38;6.50;;;2.70;99.90;;;;;;5082021;28;20092;-62
2024/01/13 02:23:33;;;;;;;14.95;6.28;;;2.70;99.90;;;;;;5082736;28;20453;-61
2024/01/13 02:25:59;;;;;;;10.70;6.15;;;2.80;99.90;;;;;;5079671;28;20109;-62
2024/01/13 02:28:24;;;;;;;14.27;6.82;;;2.80;99.90;;;;;;5081419;28;20487;-62
2024/01/13 02:30:50;;;;;;;9.80;5.65;;;2.80;99.90;;;;;;5081967;28;20040;-62
2024/01/13 02:33:16;;;;;;;9.38;5.55;;;2.80;99.90;;;;;;5081210;28;20475;-63
2024/01/13 02:35:41;;;;;;;9.00;5.95;;;2.70;99.90;;;;;;5082911;28;20505;-63
2024/01/13 02:38:07;;;;;;;10.57;5.75;;;2.80;99.90;;;;;;5080227;28;20082;-62
2024/01/13 02:40:34;;;;;;;10.63;6.30;;;2.80;99.90;;;;;;5078164;28;20426;-62
2024/01/13 02:42:59;;;;;;;11.15;5.90;;;2.80;99.90;;;;;;5077258;28;20040;-62
2024/01/13 02:45:25;;;;;;;14.88;6.47;;;2.80;99.90;;;;;;5078086;28;20394;-63
2024/01/13 02:48:08;;;;;;;13.38;6.00;;;2.70;99.90;;;;;;5079560;28;20407;-62
2024/01/13 02:50:33;;;;;;;;;;;2.80;99.90;;;;;;5082058;28;20050;-63
2024/01/13 02:52:59;;;;;;;9.85;5.10;;;2.80;99.90;;;;;;5075300;28;20006;-61
2024/01/13 02:55:24;;;;;;;6.53;4.75;;;2.80;99.90;;;;;;5079826;28;20151;-62
2024/01/13 02:57:50;;;;;;;7.25;5.05;;;2.80;99.90;;;;;;5079490;28;20043;-62
2024/01/13 03:00:17;;;;;;;9.55;5.13;;;2.80;99.90;;;;;;5082825;28;20082;-63
2024/01/13 03:02:43;;;;;;;9.55;5.30;;;2.80;99.90;;;;;;5079070;28;20745;-62
2024/01/13 03:05:09;;;;;;;9.55;5.50;;;2.80;99.90;;;;;;5081904;28;20069;-63
2024/01/13 03:07:35;;;;;;;8.45;5.22;;;2.70;99.90;;;;;;5078509;28;20089;-63
2024/01/13 03:10:02;;;;;;;8.55;5.13;;;2.80;99.90;;;;;;5079603;28;20040;-61
2024/01/13 03:12:27;;;;;;;6.82;4.53;;;2.80;99.90;;;;;;5076004;28;20085;-62
2024/01/13 03:14:53;;;;;;;8.07;5.18;;;2.70;99.90;;;;;;5078377;28;20071;-62
2024/01/13 03:17:19;;;;;;;11.75;5.25;;;2.70;99.90;;;;;;5079153;28;20063;-62
2024/01/13 03:19:44;;;;;;;8.75;5.45;;;2.70;99.90;;;;;;5081182;28;20040;-62
2024/01/13 03:22:10;;;;;;;9.48;5.40;;;2.70;99.90;;;;;;5080510;28;20032;-64
2024/01/13 03:24:36;;;;;;;8.88;5.60;;;2.70;99.90;;;;;;5078655;28;20051;-63
2024/01/13 03:27:01;;;;;;;10.63;5.80;;;2.70;99.90;;;;;;5062260;28;20056;-63
2024/01/13 03:29:27;;;;;;;8.02;5.00;;;2.70;99.90;;;;;;5079774;28;20130;-63
2024/01/13 03:31:52;;;;;;;10.57;5.15;;;2.70;99.90;;;;;;5078886;28;20584;-62
2024/01/13 03:34:18;;;;;;;13.85;5.93;;;2.70;99.90;;;;;;5081674;28;20509;-63
2024/01/13 03:36:44;;;;;;;10.88;5.40;;;2.70;99.90;;;;;;5080351;28;20510;-62
2024/01/13 03:39:09;;;;;;;10.18;5.50;;;2.70;99.90;;;;;;5079511;28;20119;-62
2024/01/13 03:41:35;;;;;;;7.78;4.95;;;2.70;99.90;;;;;;5079891;28;20034;-63
2024/01/13 03:44:01;;;;;;;9.25;5.38;;;2.70;99.90;;;;;;5077821;28;20137;-63
2024/01/13 03:46:27;;;;;;;9.27;5.15;;;2.70;99.90;;;;;;5077298;28;20039;-62
2024/01/13 03:48:52;;;;;;;8.85;5.43;;;2.70;99.90;;;;;;5076999;28;20103;-62
2024/01/13 03:51:18;;;;;;;7.55;5.35;;;2.80;99.90;;;;;;5079658;28;20055;-64
2024/01/13 03:53:44;;;;;;;6.45;5.07;;;2.70;99.90;;;;;;5079615;28;20540;-62
2024/01/13 03:56:10;;;;;;;8.40;5.38;;;2.80;99.90;;;;;;5061745;28;20048;-61
2024/01/13 03:58:35;;;;;;;9.95;5.70;;;2.70;99.90;;;;;;5077038;28;20487;-62
2024/01/13 04:01:02;;;;;;;9.88;5.40;;;2.70;99.90;;;;;;5079680;28;20043;-62
2024/01/13 04:03:27;;;;;;;8.13;5.22;;;2.70;99.90;;;;;;5078312;28;20044;-62
2024/01/13 04:05:53;;;;;;;9.38;5.18;;;2.70;99.90;;;;;;5080248;28;20093;-62
2024/01/13 04:08:19;;;;;;;11.77;5.47;;;2.80;99.90;;;;;;5079226;28;20531;-63
2024/01/13 04:10:45;;;;;;;10.98;5.47;;;2.70;99.90;;;;;;5081152;28;20036;-63
2024/01/13 04:13:12;;;;;;;8.70;5.07;;;2.70;99.90;;;;;;5079928;28;20043;-62
2024/01/13 04:15:38;;;;;;;10.23;6.20;;;2.70;99.90;;;;;;5079918;28;20048;-63
2024/01/13 04:18:03;;;;;;;11.60;5.22;;;2.70;99.90;;;;;;5077030;28;20051;-62
2024/01/13 04:20:29;;;;;;;9.20;4.97;;;2.70;99.90;;;;;;5077639;28;20483;-62
2024/01/13 04:22:55;;;;;;;11.05;5.60;;;2.80;99.90;;;;;;5075152;28;20047;-63
2024/01/13 04:25:20;;;;;;;9.63;5.63;;;2.70;99.90;;;;;;5076769;28;20056;-62
2024/01/13 04:27:48;;;;;;;10.90;5.25;;;2.70;99.90;;;;;;5079905;28;20177;-62
2024/01/13 04:30:14;;;;;;;7.07;4.38;;;2.70;99.90;;;;;;5077748;28;20530;-64
2024/01/13 04:32:40;;;;;;;7.07;4.80;;;2.70;99.90;;;;;;5078256;28;20036;-62
2024/01/13 04:35:06;;;;;;;7.10;3.85;;;2.80;99.90;;;;;;5076796;28;20056;-62
2024/01/13 04:37:32;;;;;;;7.63;4.35;;;2.70;99.90;;;;;;5077890;28;20067;-62
2024/01/13 04:39:57;;;;;;;7.80;3.70;;;2.80;99.90;;;;;;5075125;28;20028;-62
2024/01/13 04:42:23;;;;;;;5.78;4.00;;;2.80;99.90;;;;;;5080151;28;20433;-63
2024/01/13 04:44:49;;;;;;;5.68;3.80;;;2.80;99.90;;;;;;5075276;28;20032;-63
2024/01/13 04:47:14;;;;;;;6.65;3.53;;;2.70;99.90;;;;;;5077991;28;20048;-63
2024/01/13 04:49:40;;;;;;;4.82;3.13;;;2.70;99.90;;;;;;5061223;28;20093;-62
2024/01/13 04:52:06;;;;;;;5.93;3.08;;;2.70;99.90;;;;;;5076031;28;20047;-63
2024/01/13 04:54:31;;;;;;;9.05;3.20;;;2.70;99.90;;;;;;5076669;28;20399;-64
2024/01/13 04:56:57;;;;;;;7.53;3.35;;;2.70;99.90;;;;;;5076046;28;20048;-63
2024/01/13 04:59:23;;;;;;;5.43;2.80;;;2.60;99.90;;;;;;5079982;28;20036;-62
2024/01/13 05:01:48;;;;;;;5.82;3.17;;;2.60;99.90;;;;;;5076349;28;20040;-63
2024/01/13 05:04:14;;;;;;;5.32;3.50;;;2.60;99.90;;;;;;5079822;28;20048;-62
2024/01/13 05:06:40;;;;;;;4.65;3.05;;;2.60;99.90;;;;;;5079684;28;20153;-63
2024/01/13 05:09:05;;;;;;;6.32;3.30;;;2.60;99.90;;;;;;5084253;28;20044;-63
2024/01/13 05:11:31;;;;;;;3.80;3.00;;;2.60;99.90;;;;;;5080423;28;20090;-64
2024/01/13 05:13:56;;;;;;;4.60;3.15;;;2.60;99.90;;;;;;5081155;28;20075;-63
2024/01/13 05:16:22;;;;;;;8.65;3.08;;;2.60;99.90;;;;;;5082746;28;20050;-63
2024/01/13 05:18:48;;;;;;;6.15;3.08;;;2.60;99.90;;;;;;5085714;28;20087;-62
2024/01/13 05:21:13;;;;;;;5.32;3.00;;;2.50;99.90;;;;;;5080109;28;20067;-62
2024/01/13 05:23:39;;;;;;;5.38;3.08;;;2.50;99.90;;;;;;5077497;28;20455;-63
2024/01/13 05:26:04;;;;;;;6.05;3.40;;;2.60;99.90;;;;;;5080615;28;20127;-62
2024/01/13 05:28:30;;;;;;;7.75;3.92;;;2.60;99.90;;;;;;5082265;28;20174;-63
2024/01/13 05:30:56;;;;;;;6.75;3.67;;;2.60;99.90;;;;;;5084202;28;20154;-63
2024/01/13 05:33:21;;;;;;;7.10;4.30;;;2.60;99.90;;;;;;5081370;28;21540;-63
2024/01/13 05:35:47;;;;;;;5.90;3.58;;;2.50;99.90;;;;;;5081106;28;20384;-62
2024/01/13 05:38:13;;;;;;;5.28;3.70;;;2.60;99.90;;;;;;5082184;28;20040;-62
2024/01/13 05:40:44;;;;;;;6.30;3.75;;;2.60;99.90;;;;;;5082863;28;20143;-63
2024/01/13 05:43:10;;;;;;;8.35;3.90;;;2.60;99.90;;;;;;5081455;28;20044;-62
2024/01/13 05:45:35;;;;;;;8.07;4.13;;;2.60;99.90;;;;;;5078872;28;20063;-62
2024/01/13 05:48:01;;;;;;;6.05;4.00;;;2.60;99.90;;;;;;5081498;28;20105;-62
2024/01/13 05:50:27;;;;;;;7.53;3.80;;;2.60;99.90;;;;;;5082430;28;20053;-62
2024/01/13 05:52:53;;;;;;;5.93;3.65;;;2.70;99.90;;;;;;5084092;28;20035;-62
2024/01/13 05:55:18;;;;;;;6.38;3.80;;;2.60;99.90;;;;;;5081667;28;20116;-62
2024/01/13 05:57:44;;;;;;;6.68;3.88;;;2.70;99.90;;;;;;5077431;28;20051;-61
2024/01/13 06:00:10;;;;;;;5.75;3.63;;;2.60;99.90;;;;;;5081090;28;20039;-62
2024/01/13 06:02:36;;;;;;;5.70;3.88;;;2.60;99.90;;;;;;5078712;28;20093;-62
2024/01/13 06:05:01;;;;;;;7.00;4.20;;;2.60;99.90;;;;;;5080435;28;20064;-62
2024/01/13 06:07:27;;;;;;;6.15;4.10;;;2.70;99.90;;;;;;5078880;28;20093;-62
2024/01/13 06:09:53;;;;;;;5.45;3.90;;;2.60;99.90;;;;;;5079587;28;20040;-63
2024/01/13 06:12:20;;;;;;;5.85;3.63;;;2.60;99.90;;;;;;5080327;28;20063;-63
2024/01/13 06:14:46;;;;;;;5.82;3.70;;;2.70;99.90;;;;;;5080908;28;20111;-62
2024/01/13 06:17:12;;;;;;;4.72;3.45;;;2.70;99.90;;;;;;5079527;28;20052;-63
2024/01/13 06:19:38;;;;;;;4.97;3.83;;;2.70;99.90;;;;;;5079989;28;20048;-62
2024/01/13 06:22:04;;;;;;;5.72;3.88;;;2.70;99.90;;;;;;5082167;28;20035;-61
2024/01/13 06:24:30;;;;;;;6.50;3.97;;;2.70;99.90;;;;;;5080593;28;20482;-62
2024/01/13 06:26:55;;;;;;;8.35;3.83;;;2.80;99.90;;;;;;5080238;28;20093;-62
2024/01/13 06:29:21;;;;;;;6.40;3.53;;;2.80;99.90;;;;;;5082100;28;20409;-62
2024/01/13 06:31:47;;;;;;;6.53;3.55;;;2.90;99.90;;;;;;5079630;28;20105;-62
2024/01/13 06:34:12;;;;;;;4.30;3.63;;;2.80;99.90;;;;;;5076504;28;20050;-63
2024/01/13 06:36:38;;;;;;;5.90;3.70;;;2.80;99.90;;;;;;5078577;28;20503;-62
2024/01/13 06:39:04;;;;;;;4.18;3.20;;;2.90;99.90;;;;;;5072229;28;20045;-63
2024/01/13 06:41:30;;;;;;;5.85;3.30;;;2.80;99.90;;;;;;5075786;28;20035;-63
2024/01/13 06:43:56;;;;;;;4.78;3.40;;;2.90;99.90;;;;;;5076588;28;20037;-63
2024/01/13 06:46:22;;;;;;;4.78;3.10;;;2.90;99.90;;;;;;5078567;28;20107;-62
2024/01/13 06:48:48;;;;;;;5.35;2.45;;;2.90;99.90;;;;;;5067068;28;20047;-62
2024/01/13 06:51:14;;;;;;;3.97;2.53;;;2.90;99.90;;;;;;5070348;28;20040;-62
2024/01/13 06:53:40;;;;;;;5.30;2.88;;;2.90;99.90;;;;;;5077138;28;20047;-63
2024/01/13 06:56:07;;;;;;;4.47;3.40;;;2.90;99.90;;;;;;5076751;28;20044;-63
2024/01/13 06:58:33;;;;;;;3.75;2.90;;;2.90;99.90;;;;;;5073490;28;20123;-63
2024/01/13 07:00:59;;;;;;;5.63;3.05;;;2.90;99.90;;;;;;5072759;28;20140;-62
2024/01/13 07:03:24;;;;;;;4.45;2.90;;;2.90;99.90;;;;;;5079548;28;20089;-62
2024/01/13 07:05:50;;;;;;;3.80;2.75;;;2.90;99.90;;;;;;5074109;28;20167;-62
2024/01/13 07:08:16;;;;;;;3.90;2.70;;;2.90;99.90;;;;;;5079442;28;20089;-62
2024/01/13 07:10:41;;;;;;;4.18;2.80;;;2.90;99.90;;;;;;5070459;28;20046;-62
2024/01/13 07:13:07;;;;;;;3.50;2.70;;;2.90;99.90;;;;;;5074710;28;20044;-62
2024/01/13 07:15:32;;;;;;;5.10;2.80;;;2.90;99.90;;;;;;5072543;28;20036;-63
2024/01/13 07:18:00;;;;;;;4.90;2.92;;;2.90;99.90;;;;;;5078235;28;20049;-61
2024/01/13 07:20:26;;;;;;;6.30;2.90;;;3.00;99.90;;;;;;5075052;28;20043;-62
2024/01/13 07:22:52;;;;;;;3.70;3.03;;;2.90;99.90;;;;;;5073820;28;20044;-63
2024/01/13 07:25:18;;;;;;;4.60;3.25;;;3.00;99.90;;;;;;5075719;28;20036;-62
2024/01/13 07:27:44;;;;;;;7.88;3.15;;;3.00;99.90;;;;;;5073848;28;20442;-63
2024/01/13 07:30:10;;;;;;;5.50;3.40;;;2.90;99.90;;;;;;5064874;28;20040;-62
2024/01/13 07:32:36;;;;;;;5.90;3.20;;;3.00;99.90;;;;;;5057830;28;20406;-62
2024/01/13 07:35:01;;;;;;;4.05;2.88;;;3.00;99.90;;;;;;5074667;28;20045;-63
2024/01/13 07:37:27;;;;;;;6.97;2.95;;;3.00;99.90;;;;;;5077524;28;20128;-62
2024/01/13 07:39:52;;;;;;;6.00;2.88;;;2.90;99.90;;;;;;5076814;28;20083;-62
2024/01/13 07:42:18;;;;;;;5.07;2.97;;;3.00;99.90;;;;;;5048412;28;20071;-63
2024/01/13 07:44:44;;;;;;;3.50;2.75;;;3.00;99.90;;;;;;5077994;28;20090;-62
2024/01/13 07:47:10;;;;;;;3.55;2.50;;;3.00;99.90;;;;;;5070423;28;20044;-62
2024/01/13 07:49:35;;;;;;;4.72;2.80;;;3.00;99.90;;;;;;5079240;28;20048;-62
2024/01/13 07:52:02;;;;;;;5.07;2.70;;;3.00;99.90;;;;;;5072642;28;20044;-64
2024/01/13 07:54:28;;;;;;;4.63;3.08;;;3.00;99.90;;;;;;5078217;28;20115;-63
2024/01/13 07:56:53;;;;;;;4.03;2.80;;;3.00;99.90;;;;;;5073487;28;20119;-62
2024/01/13 07:59:19;;;;;;;5.15;3.00;;;3.00;99.90;;;;;;5069634;28;20379;-61
2024/01/13 08:01:45;;;;;;;5.22;2.95;;;3.00;99.90;;;;;;5072160;28;20029;-61
2024/01/13 08:04:13;;;;;;;3.75;3.10;;;3.00;99.90;;;;;;5072009;28;20195;-62
2024/01/13 08:06:39;;;;;;;4.68;3.17;;;3.10;99.90;;;;;;5071170;28;20102;-62
2024/01/13 08:09:06;;;;;;;4.03;3.05;;;3.10;99.90;;;;;;5067259;28;20115;-63
2024/01/13 08:11:31;;;;;;;6.18;3.35;;;3.10;99.90;;;;;;5074949;28;20431;-62
2024/01/13 08:13:57;;;;;;;4.07;3.00;;;3.00;99.90;;;;;;5069598;28;20123;-62
2024/01/13 08:16:23;;;;;;;4.65;3.38;;;3.10;99.90;;;;;;5073764;28;20442;-63
2024/01/13 08:18:49;;;;;;;5.75;3.30;;;3.00;99.90;;;;;;5078505;28;20051;-62
2024/01/13 08:21:14;;;;;;;8.93;4.80;;;3.10;99.90;;;;;;5068898;28;20032;-62
2024/01/13 08:23:41;;;;;;;8.27;4.82;;;3.10;99.90;;;;;;5076177;28;20036;-62
2024/01/13 08:26:06;;;;;;;8.77;5.20;;;3.10;99.90;;;;;;5068108;28;20047;-62
2024/01/13 08:28:33;;;;;;;11.57;5.82;;;3.10;99.90;;;;;;5071915;28;20036;-63
2024/01/13 08:30:58;;;;;;;11.43;5.68;;;3.10;99.90;;;;;;5069609;28;20238;-62
2024/01/13 08:33:24;;;;;;;12.15;6.75;;;3.10;99.90;;;;;;5072767;28;20071;-62
2024/01/13 08:35:49;;;;;;;13.90;6.47;;;3.10;99.90;;;;;;5074215;28;20036;-63
2024/01/13 08:38:15;;;;;;;15.82;7.72;;;3.10;99.90;;;;;;5074164;28;20055;-62
2024/01/13 08:40:41;;;;;;;17.27;8.32;;;3.10;99.90;;;;;;5074356;28;20075;-62
2024/01/13 08:43:08;;;;;;;19.30;8.63;;;3.10;99.90;;;;;;5070335;28;20036;-62
2024/01/13 08:45:35;;;;;;;21.20;9.82;;;3.10;99.90;;;;;;5068176;28;20068;-62
2024/01/13 08:48:01;;;;;;;20.48;10.10;;;3.10;99.90;;;;;;5054637;28;20421;-62
2024/01/13 08:50:26;;;;;;;20.42;10.48;;;3.10;99.90;;;;;;5052330;28;20040;-63
2024/01/13 08:52:54;;;;;;;25.90;12.65;;;3.10;99.90;;;;;;5072985;28;20032;-62
2024/01/13 08:55:26;;;;;;;27.08;13.10;;;3.10;99.90;;;;;;5050462;28;20044;-62
2024/01/13 08:57:52;;;;;;;25.27;13.00;;;3.10;99.90;;;;;;5079468;28;20040;-62
2024/01/13 09:00:18;;;;;;;31.77;14.40;;;3.10;99.90;;;;;;5069558;28;20102;-64
2024/01/13 09:02:44;;;;;;;32.47;14.43;;;3.10;99.90;;;;;;5069247;28;20029;-63
2024/01/13 09:05:10;;;;;;;36.88;15.48;;;3.10;99.90;;;;;;5072279;28;20105;-63
2024/01/13 09:07:37;;;;;;;36.97;15.18;;;3.10;99.90;;;;;;5076368;28;20041;-63
2024/01/13 09:10:03;;;;;;;36.65;16.13;;;3.10;99.90;;;;;;5075746;28;20540;-64
2024/01/13 09:12:29;;;;;;;34.72;15.82;;;3.10;99.90;;;;;;5068158;28;20079;-62
2024/01/13 09:14:55;;;;;;;35.65;16.40;;;3.10;99.90;;;;;;5073778;28;20053;-63
2024/01/13 09:17:20;;;;;;;45.17;20.90;;;3.10;99.90;;;;;;5073217;28;20498;-64
2024/01/13 09:19:46;;;;;;;45.40;20.73;;;3.10;99.90;;;;;;5073261;28;20094;-62
2024/01/13 09:22:12;;;;;;;47.47;22.67;;;3.10;99.90;;;;;;5071407;28;20086;-64
2024/01/13 09:24:37;;;;;;;43.65;22.17;;;3.20;99.90;;;;;;5075818;28;20032;-64
2024/01/13 09:27:03;;;;;;;49.72;23.77;;;3.10;99.90;;;;;;5070264;28;20045;-64
2024/01/13 09:29:29;;;;;;;46.78;23.20;;;3.10;99.90;;;;;;5068333;28;20054;-62
2024/01/13 09:31:55;;;;;;;50.65;22.90;;;3.20;99.90;;;;;;5069873;28;20086;-64
2024/01/13 09:34:21;;;;;;;47.78;23.73;;;3.10;99.90;;;;;;5067848;28;20404;-62
2024/01/13 09:36:47;;;;;;;46.33;23.92;;;3.20;99.90;;;;;;5066370;28;20080;-62
2024/01/13 09:39:14;;;;;;;49.45;24.95;;;3.10;99.90;;;;;;5069974;28;20075;-64
2024/01/13 09:41:46;;;;;;;48.80;25.77;;;3.10;99.90;;;;;;5069312;28;20044;-64
2024/01/13 09:44:23;;;;;;;51.35;26.00;;;3.10;99.90;;;;;;5065560;28;20043;-63
2024/01/13 09:46:52;;;;;;;44.63;23.73;;;3.20;99.90;;;;;;5065836;28;20031;-63
2024/01/13 09:49:20;;;;;;;42.40;24.27;;;3.20;99.90;;;;;;5065371;28;20102;-63
2024/01/13 09:51:46;;;;;;;41.80;23.00;;;3.10;99.90;;;;;;5069371;28;20048;-63
2024/01/13 09:54:20;;;;;;;45.53;24.52;;;3.20;99.90;;;;;;5070975;28;20040;-64
2024/01/13 09:56:49;;;;;;;44.58;24.88;;;3.20;99.90;;;;;;5071586;28;20032;-64
2024/01/13 09:59:16;;;;;;;47.58;24.10;;;3.20;99.90;;;;;;5071567;28;20045;-62
2024/01/13 10:01:42;;;;;;;47.30;24.75;;;3.20;99.90;;;;;;5071055;28;20066;-63
2024/01/13 10:04:09;;;;;;;48.70;25.02;;;3.10;99.90;;;;;;5073271;28;20084;-63
2024/01/13 10:06:35;;;;;;;47.08;26.50;;;3.20;99.90;;;;;;5071588;28;20048;-62
2024/01/13 10:09:02;;;;;;;47.55;25.95;;;3.20;99.90;;;;;;5070641;28;20346;-64
2024/01/13 10:11:31;;;;;;;48.83;26.23;;;3.20;99.90;;;;;;5071706;28;20032;-64
2024/01/13 10:14:07;;;;;;;49.88;26.77;;;3.20;99.90;;;;;;5072184;28;20032;-64
2024/01/13 10:16:34;;;;;;;43.38;23.67;;;3.20;99.90;;;;;;5070961;28;20063;-63
2024/01/13 10:19:02;;;;;;;42.63;24.85;;;3.20;99.90;;;;;;5070595;28;20116;-64
2024/01/13 10:21:28;;;;;;;46.17;25.38;;;3.30;99.90;;;;;;5078057;28;20082;-64
2024/01/13 10:23:57;;;;;;;43.60;22.90;;;3.30;99.90;;;;;;5080938;28;20399;-65
2024/01/13 10:26:27;;;;;;;40.72;23.45;;;3.30;99.90;;;;;;5076561;28;20437;-62
2024/01/13 10:28:54;;;;;;;40.35;23.92;;;3.30;99.90;;;;;;5080180;28;20048;-62
2024/01/13 10:31:20;;;;;;;39.20;25.75;;;3.30;99.90;;;;;;5081418;28;20123;-62
2024/01/13 10:33:47;;;;;;;34.08;23.20;;;3.30;99.90;;;;;;5078557;28;20040;-64
2024/01/13 10:36:14;;;;;;;43.05;24.95;;;3.30;99.90;;;;;;5078093;28;20051;-63
2024/01/13 10:38:42;;;;;;;41.80;25.65;;;3.40;99.90;;;;;;5074254;28;20044;-63
2024/01/13 10:41:09;;;;;;;40.33;26.10;;;3.40;99.90;;;;;;5079141;28;20032;-63
2024/01/13 10:43:43;;;;;;;38.70;25.48;;;3.40;99.90;;;;;;5082768;28;20107;-63
2024/01/13 10:46:18;;;;;;;45.50;28.40;;;3.40;99.90;;;;;;5076612;28;20158;-63
2024/01/13 10:48:50;;;;;;;40.92;26.08;;;3.40;99.90;;;;;;5074280;28;20110;-63
2024/01/13 10:51:42;;;;;;;44.63;29.00;;;3.40;99.90;;;;;;5078520;28;20043;-62
2024/01/13 10:54:09;;;;;;;45.83;28.63;;;3.40;99.90;;;;;;5080295;28;20449;-63
2024/01/13 10:56:36;;;;;;;47.90;29.95;;;3.40;99.90;;;;;;5083789;28;20048;-64
2024/01/13 10:59:02;;;;;;;52.15;32.30;;;3.50;99.90;;;;;;5074643;28;20037;-64
2024/01/13 11:01:28;;;;;;;50.58;31.88;;;3.50;99.90;;;;;;5070096;28;20482;-63
2024/01/13 11:03:54;;;;;;;53.55;30.80;;;3.50;99.90;;;;;;5069452;28;20068;-62
2024/01/13 11:06:21;;;;;;;53.15;32.75;;;3.50;99.90;;;;;;5075035;28;20044;-64
2024/01/13 11:08:47;;;;;;;50.17;33.33;;;3.50;99.90;;;;;;5079366;28;20183;-63
2024/01/13 11:11:19;;;;;;;52.88;32.78;;;3.50;99.90;;;;;;5073748;28;20423;-63
2024/01/13 11:13:49;;;;;;;50.58;34.20;;;3.50;99.90;;;;;;5078714;28;20044;-63
2024/01/13 11:16:23;;;;;;;56.60;34.83;;;3.60;99.90;;;;;;5076252;28;20495;-63
2024/01/13 11:18:53;;;;;;;52.35;33.40;;;3.60;99.90;;;;;;5059296;28;20048;-63
2024/01/13 11:21:27;;;;;;;56.13;36.50;;;3.60;99.90;;;;;;5079131;28;20163;-62
2024/01/13 11:23:52;;;;;;;60.78;36.58;;;3.60;99.90;;;;;;5081738;28;20040;-64
2024/01/13 11:26:35;;;;;;;57.45;36.20;;;3.60;99.90;;;;;;5079873;28;20049;-63
2024/01/13 11:29:01;;;;;;;59.10;37.17;;;3.60;99.90;;;;;;5079267;28;20031;-63
2024/01/13 11:31:41;;;;;;;58.08;36.80;;;3.60;99.90;;;;;;5081318;28;20510;-62
2024/01/13 11:34:11;;;;;;;59.22;38.25;;;3.60;99.90;;;;;;5075551;28;20062;-63
2024/01/13 11:36:44;;;;;;;60.35;37.55;;;3.60;99.90;;;;;;5079280;28;20047;-63
2024/01/13 11:39:09;;;;;;;58.78;36.08;;;3.60;99.90;;;;;;5075612;28;20044;-63
2024/01/13 11:41:39;;;;;;;62.70;37.92;;;3.70;99.90;;;;;;5076556;28;20085;-63
2024/01/13 11:44:06;;;;;;;62.08;37.53;;;3.70;99.90;;;;;;5096543;28;20043;-63
2024/01/13 11:46:35;;;;;;;62.85;35.70;;;3.60;99.90;;;;;;5061558;28;20040;-63
2024/01/13 11:49:03;;;;;;;57.83;35.42;;;3.60;99.90;;;;;;5081457;28;20046;-63
2024/01/13 11:51:57;;;;;;;56.58;34.55;;;3.60;99.90;;;;;;5075263;28;20076;-62
2024/01/13 11:54:24;;;;;;;59.40;34.58;;;3.60;99.90;;;;;;5077474;28;20539;-62
2024/01/13 11:56:50;;;;;;;55.88;32.92;;;3.60;99.90;;;;;;5074917;28;20538;-63
2024/01/13 11:59:16;;;;;;;54.42;33.67;;;3.60;99.90;;;;;;5080344;28;20048;-63
2024/01/13 12:01:45;;;;;;;51.20;32.92;;;3.60;99.90;;;;;;5081566;28;20028;-62
2024/01/13 12:04:10;;;;;;;52.05;32.25;;;3.70;99.90;;;;;;5078566;28;20081;-63
2024/01/13 12:06:36;;;;;;;49.05;30.75;;;3.70;99.90;;;;;;5079100;28;20029;-64
2024/01/13 12:09:03;;;;;;;56.63;30.73;;;3.70;99.90;;;;;;5076171;28;20407;-62
2024/01/13 12:11:28;;;;;;;45.85;30.33;;;3.80;99.90;;;;;;5078808;28;20043;-64
2024/01/13 12:13:54;;;;;;;48.42;31.63;;;3.90;99.90;;;;;;5075739;28;20400;-62
2024/01/13 12:16:20;;;;;;;44.90;29.08;;;3.90;99.90;;;;;;5078337;28;20040;-62
2024/01/13 12:18:46;;;;;;;44.67;28.60;;;3.90;99.90;;;;;;5073225;28;20052;-63
2024/01/13 12:21:14;;;;;;;50.45;30.10;;;3.90;99.90;;;;;;5077554;28;20055;-62
2024/01/13 12:23:43;;;;;;;46.90;30.42;;;4.00;99.90;;;;;;5058574;28;20037;-65
2024/01/13 12:26:08;;;;;;;48.30;30.75;;;4.00;99.90;;;;;;5080885;28;20051;-63
2024/01/13 12:28:34;;;;;;;44.92;28.90;;;4.00;99.90;;;;;;5077830;28;20391;-63
2024/01/13 12:31:04;;;;;;;50.95;30.45;;;4.00;99.90;;;;;;5078697;28;20399;-63
2024/01/13 12:33:33;;;;;;;45.58;29.88;;;3.90;99.90;;;;;;5077823;28;20045;-63
2024/01/13 12:35:59;;;;;;;43.03;28.02;;;3.90;99.90;;;;;;5078585;28;20036;-63
2024/01/13 12:38:31;;;;;;;47.58;28.33;;;3.90;99.90;;;;;;5077317;28;20503;-63
2024/01/13 12:40:58;;;;;;;49.50;28.17;;;4.00;99.90;;;;;;5078979;28;20115;-63
2024/01/13 12:43:25;;;;;;;45.33;28.00;;;4.00;99.90;;;;;;5080080;28;20392;-62